Time;durP1;ratioP1;P1;durP2;ratioP2;P2;SDS_P1;SDS_P2;PMS_P1;PMS_P2;Temp;Humidity;BMP_temperature;BMP_pressure;BME280_temperature;BME280_humidity;BME280_pressure;Samples;Min_cycle;Max_cycle;Signal;HPM_P1;HPM_P2
2022/07/17 00:00:04;;;;;;;1.53;1.00;;;21.70;95.60;;;22.16;48.97;102212.72;4873525;28;98238;-55
2022/07/17 00:02:30;;;;;;;1.03;0.80;;;21.70;95.40;;;22.18;48.92;102216.16;4876413;28;97645;-52
2022/07/17 00:04:56;;;;;;;2.30;0.90;;;21.70;95.80;;;22.17;48.61;102206.38;4874580;28;98523;-56
2022/07/17 00:07:21;;;;;;;1.30;1.00;;;21.70;94.60;;;22.17;48.88;102211.75;4877876;28;96870;-55
2022/07/17 00:09:47;;;;;;;1.00;0.77;;;21.70;95.20;;;22.14;48.78;102216.44;4875888;28;101130;-51
2022/07/17 00:12:13;;;;;;;2.60;1.20;;;21.70;94.50;;;22.13;48.61;102215.59;4879584;28;97429;-50
2022/07/17 00:14:39;;;;;;;1.00;0.90;;;21.60;94.20;;;22.11;48.79;102212.09;4877840;28;97236;-61
2022/07/17 00:17:05;;;;;;;1.57;1.20;;;21.60;94.30;;;22.09;49.19;102219.38;4877617;28;109907;-54
2022/07/17 00:19:32;;;;;;;1.07;0.70;;;21.50;95.20;;;22.06;49.65;102208.81;4877276;28;99787;-52
2022/07/17 00:21:58;;;;;;;1.30;0.87;;;21.50;96.70;;;22.08;49.73;102206.03;4871443;28;97534;-51
2022/07/17 00:24:24;;;;;;;1.20;0.80;;;21.60;97.60;;;22.09;49.48;102203.25;4874945;28;105898;-56
2022/07/17 00:26:51;;;;;;;1.00;0.87;;;21.60;97.00;;;22.09;48.91;102200.56;4873666;28;98923;-54
2022/07/17 00:29:18;;;;;;;1.43;0.83;;;21.60;94.40;;;22.08;49.11;102206.91;4873195;28;97761;-50
2022/07/17 00:31:44;;;;;;;1.60;1.17;;;21.60;95.90;;;22.08;49.35;102201.53;4868637;28;104770;-55
2022/07/17 00:34:11;;;;;;;1.00;0.83;;;21.60;95.80;;;22.07;48.79;102194.44;4882077;28;98944;-53
2022/07/17 00:36:37;;;;;;;1.40;0.93;;;21.60;94.30;;;22.07;49.42;102194.44;4875872;28;97826;-53
2022/07/17 00:39:04;;;;;;;1.27;0.83;;;21.60;95.80;;;22.06;49.26;102192.72;4872720;28;97626;-54
2022/07/17 00:41:30;;;;;;;1.97;1.40;;;21.50;95.70;;;22.04;49.21;102199.97;4875194;28;98387;-52
2022/07/17 00:44:08;;;;;;;0.77;0.60;;;21.50;95.90;;;22.00;49.74;102203.81;4870819;28;99194;-56
2022/07/17 00:46:34;;;;;;;1.37;0.67;;;21.50;97.40;;;22.02;49.64;102203.69;4873008;28;99078;-56
2022/07/17 00:49:01;;;;;;;1.33;0.80;;;21.50;97.60;;;22.02;49.91;102201.88;4872065;28;99826;-56
2022/07/17 00:51:27;;;;;;;1.57;1.10;;;21.60;97.60;;;22.03;49.56;102203.63;4873955;28;98439;-56
2022/07/17 00:53:54;;;;;;;0.97;0.77;;;21.60;96.80;;;22.06;49.46;102206.13;4870977;28;99221;-55
2022/07/17 00:56:22;;;;;;;1.37;0.93;;;21.60;96.60;;;22.07;49.66;102201.63;4878552;28;99188;-55
2022/07/17 00:58:50;;;;;;;1.00;0.90;;;21.60;98.00;;;22.08;49.23;102198.84;4874524;28;97572;-57
2022/07/17 01:01:16;;;;;;;0.97;0.83;;;21.70;96.70;;;22.06;49.22;102203.44;4879727;28;99472;-56
2022/07/17 01:03:43;;;;;;;1.30;1.00;;;21.60;95.60;;;22.06;49.55;102195.38;4875434;28;97977;-55
2022/07/17 01:06:09;;;;;;;0.90;0.90;;;21.60;97.70;;;22.06;49.45;102197.22;4878401;28;97754;-55
2022/07/17 01:08:36;;;;;;;0.80;0.70;;;21.60;96.90;;;22.04;49.44;102199.09;4876302;28;99086;-52
2022/07/17 01:11:03;;;;;;;2.07;1.27;;;21.60;96.30;;;21.98;48.65;102197.63;4873279;28;97583;-55
2022/07/17 01:13:31;;;;;;;1.00;0.83;;;21.40;94.10;;;21.96;49.27;102191.47;4874033;28;98805;-54
2022/07/17 01:15:58;;;;;;;1.10;1.00;;;21.40;95.10;;;21.91;49.61;102209.69;4886431;28;96782;-57
2022/07/17 01:18:24;;;;;;;4.30;1.80;;;21.30;94.90;;;21.82;48.50;102204.84;4885188;28;97854;-54
2022/07/17 01:20:50;;;;;;;1.00;0.90;;;21.10;93.60;;;21.81;50.21;102205.81;4886394;28;97805;-55
2022/07/17 01:23:19;;;;;;;2.33;0.93;;;21.10;97.70;;;21.81;50.34;102200.44;4891008;28;97500;-54
2022/07/17 01:25:45;;;;;;;1.00;0.90;;;21.20;98.10;;;21.83;50.03;102206.59;4892413;28;97223;-56
2022/07/17 01:28:13;;;;;;;1.00;0.90;;;21.20;97.00;;;21.86;50.15;102201.06;4906782;28;97239;-52
2022/07/17 01:30:48;;;;;;;1.13;1.00;;;21.30;98.30;;;21.88;49.55;102209.88;4902120;28;97062;-49
2022/07/17 01:33:13;;;;;;;1.63;1.00;;;21.40;95.30;;;21.89;50.08;102208.94;4890678;28;96815;-54
2022/07/17 01:35:39;;;;;;;2.10;1.10;;;21.40;98.00;;;21.85;49.97;102208.25;4891206;28;98176;-60
2022/07/17 01:38:05;;;;;;;1.47;1.10;;;21.30;97.80;;;21.85;50.12;102210.06;4893219;28;97629;-55
2022/07/17 01:40:31;;;;;;;1.33;0.93;;;21.30;98.30;;;21.84;50.27;102202.94;4893051;28;100051;-55
2022/07/17 01:42:57;;;;;;;1.00;0.90;;;21.30;97.80;;;21.83;49.68;102206.59;4895043;28;96988;-54
2022/07/17 01:45:22;;;;;;;1.60;1.00;;;21.30;95.90;;;21.83;49.91;102206.59;4892867;28;96887;-55
2022/07/17 01:47:48;;;;;;;1.57;0.90;;;21.30;96.20;;;21.83;50.04;102203.91;4883406;28;97477;-53
2022/07/17 01:50:15;;;;;;;1.13;0.90;;;21.30;98.40;;;21.84;50.05;102205.63;4891476;28;96947;-50
2022/07/17 01:52:44;;;;;;;1.13;0.90;;;21.30;97.80;;;21.84;49.87;102208.31;4889884;28;97107;-55
2022/07/17 01:55:14;;;;;;;1.77;0.70;;;21.30;96.10;;;21.84;50.04;102198.44;4894437;28;97131;-54
2022/07/17 01:57:41;;;;;;;1.37;1.07;;;21.30;97.70;;;21.85;49.62;102204.72;4909663;28;97463;-56
2022/07/17 02:00:14;;;;;;;0.80;0.73;;;21.40;95.90;;;21.84;50.03;102203.81;4889545;28;97172;-57
2022/07/17 02:02:40;;;;;;;1.27;1.17;;;21.30;96.70;;;21.84;49.76;102203.81;4889209;28;97128;-55
2022/07/17 02:05:07;;;;;;;1.67;1.23;;;21.30;96.80;;;21.84;49.93;102202.94;4891107;28;97023;-56
2022/07/17 02:07:36;;;;;;;0.80;0.77;;;21.30;97.60;;;21.85;50.20;102199.34;4882761;28;97319;-55
2022/07/17 02:10:03;;;;;;;1.03;0.90;;;21.30;98.80;;;21.86;50.27;102199.25;4888586;28;97874;-57
2022/07/17 02:12:29;;;;;;;1.80;0.77;;;21.40;98.60;;;21.88;50.17;102196.47;4904027;28;97306;-52
2022/07/17 02:14:54;;;;;;;1.33;0.90;;;21.40;98.50;;;21.92;50.14;102192.63;4892036;28;97579;-51
2022/07/17 02:17:20;;;;;;;1.47;1.13;;;21.50;98.80;;;21.90;50.13;102197.22;4902247;28;97162;-53
2022/07/17 02:19:46;;;;;;;1.67;0.93;;;21.50;98.40;;;21.89;49.85;102195.50;4888227;28;97321;-49
2022/07/17 02:22:12;;;;;;;3.30;1.63;;;21.40;96.30;;;21.82;49.62;102200.34;4902140;28;97110;-54
2022/07/17 02:24:38;;;;;;;1.90;1.03;;;21.30;94.50;;;21.77;50.26;102196.22;4896263;28;102171;-50
2022/07/17 02:27:03;;;;;;;2.10;1.23;;;21.10;98.80;;;21.73;50.34;102200.91;4897183;28;97319;-52
2022/07/17 02:29:29;;;;;;;1.20;0.90;;;21.10;97.50;;;21.66;50.35;102197.69;4890782;28;100138;-50
2022/07/17 02:31:55;;;;;;;1.07;0.97;;;21.00;97.80;;;21.69;50.78;102192.13;4895917;28;103167;-55
2022/07/17 02:34:21;;;;;;;1.80;1.10;;;21.10;99.10;;;21.69;50.25;102194.81;4903658;28;97559;-55
2022/07/17 02:36:47;;;;;;;1.20;1.03;;;21.10;96.10;;;21.65;50.66;102197.78;4887170;28;105134;-52
2022/07/17 02:39:12;;;;;;;1.57;1.27;;;21.00;97.90;;;21.62;50.15;102198.84;4879715;28;97126;-52
2022/07/17 02:41:38;;;;;;;1.90;1.30;;;21.00;95.00;;;21.59;50.66;102199.03;4887771;28;97397;-54
2022/07/17 02:44:04;;;;;;;1.43;1.10;;;20.90;98.10;;;21.59;50.89;102203.53;4885135;28;97003;-55
2022/07/17 02:46:30;;;;;;;1.80;1.37;;;21.00;97.90;;;21.59;51.11;102209.75;4890558;28;101082;-58
2022/07/17 02:48:56;;;;;;;1.77;0.80;;;20.90;99.60;;;21.61;50.54;102205.16;4882239;28;113782;-55
2022/07/17 02:51:21;;;;;;;1.90;1.10;;;21.00;96.20;;;21.61;51.07;102202.47;4887296;28;97139;-53
2022/07/17 02:53:47;;;;;;;1.13;0.90;;;21.00;99.70;;;21.66;50.88;102199.53;4892511;28;97278;-56
2022/07/17 02:56:13;;;;;;;1.83;0.97;;;21.10;99.30;;;21.69;50.32;102200.19;4888451;28;119687;-53
2022/07/17 02:58:39;;;;;;;1.17;1.00;;;21.20;96.70;;;21.74;50.66;102201.78;4891325;28;97739;-60
2022/07/17 03:01:05;;;;;;;2.57;1.40;;;21.20;99.50;;;21.75;49.97;102200.81;4892569;28;104832;-54
2022/07/17 03:03:31;;;;;;;1.43;1.10;;;21.20;95.90;;;21.73;50.54;102203.59;4888029;28;97464;-56
2022/07/17 03:05:56;;;;;;;2.00;1.03;;;21.20;98.70;;;21.76;50.63;102205.22;4898188;28;97433;-53
2022/07/17 03:08:22;;;;;;;1.73;1.00;;;21.20;99.50;;;21.79;50.54;102210.41;4895655;28;103943;-54
2022/07/17 03:10:48;;;;;;;1.30;1.20;;;21.30;99.30;;;21.76;50.33;102211.47;4905964;28;113972;-56
2022/07/17 03:13:14;;;;;;;2.00;1.30;;;21.20;97.10;;;21.74;50.20;102207.16;4897873;28;97192;-56
2022/07/17 03:15:39;;;;;;;1.10;1.00;;;21.10;96.90;;;21.69;50.34;102213.63;4883931;28;97412;-61
2022/07/17 03:18:05;;;;;;;1.80;1.10;;;21.00;98.30;;;21.66;50.64;102211.13;4889138;28;98682;-55
2022/07/17 03:20:31;;;;;;;1.37;0.97;;;21.00;97.90;;;21.68;50.85;102214.59;4891911;28;97373;-56
2022/07/17 03:22:57;;;;;;;1.27;1.00;;;21.00;99.50;;;21.71;50.58;102207.34;4889625;28;96822;-54
2022/07/17 03:25:23;;;;;;;1.67;1.03;;;21.20;99.10;;;21.72;50.45;102217.13;4892709;28;97085;-56
2022/07/17 03:27:48;;;;;;;1.50;1.03;;;21.20;97.40;;;21.63;50.58;102219.38;4902650;28;96726;-54
2022/07/17 03:30:14;;;;;;;2.00;1.10;;;21.00;97.00;;;21.59;50.55;102209.75;4892834;28;98400;-54
2022/07/17 03:32:40;;;;;;;2.00;1.20;;;20.90;97.70;;;21.60;50.94;102216.88;4880229;28;98542;-58
2022/07/17 03:35:07;;;;;;;1.80;1.10;;;20.90;99.80;;;21.59;50.81;102220.50;4888563;28;97264;-54
2022/07/17 03:37:33;;;;;;;2.83;1.27;;;21.00;98.00;;;21.56;50.66;102220.69;4889737;28;97282;-51
2022/07/17 03:39:59;;;;;;;2.60;1.50;;;20.90;97.40;;;21.53;51.04;102215.47;4898782;28;96904;-57
2022/07/17 03:42:25;;;;;;;1.70;1.10;;;20.90;98.20;;;21.54;51.06;102211.81;4904416;28;106068;-54
2022/07/17 03:44:51;;;;;;;0.97;0.87;;;20.90;99.30;;;21.54;51.20;102217.19;4895486;28;107448;-55
2022/07/17 03:47:16;;;;;;;1.83;1.20;;;20.90;99.20;;;21.56;51.01;102215.31;4889556;28;97282;-55
2022/07/17 03:49:42;;;;;;;1.60;1.50;;;21.00;99.70;;;21.56;50.19;102220.69;4880430;28;101722;-56
2022/07/17 03:52:08;;;;;;;2.87;1.30;;;21.00;95.80;;;21.49;50.54;102216.59;4890374;28;96844;-55
2022/07/17 03:54:34;;;;;;;1.57;1.43;;;20.80;96.30;;;21.37;50.93;102226.22;4885616;28;100958;-56
2022/07/17 03:56:59;;;;;;;2.27;1.50;;;20.60;96.20;;;21.28;51.31;102225.88;4890247;28;100306;-53
2022/07/17 03:59:25;;;;;;;1.33;0.80;;;20.40;97.10;;;21.28;51.52;102234.78;4893969;28;96745;-56
2022/07/17 04:01:51;;;;;;;0.90;0.90;;;20.40;98.80;;;21.28;51.31;102233.94;4885464;28;98329;-55
2022/07/17 04:04:17;;;;;;;1.50;1.13;;;20.50;97.90;;;21.29;51.33;102232.97;4888656;28;97473;-52
2022/07/17 04:06:43;;;;;;;2.40;1.20;;;20.50;98.30;;;21.30;51.35;102232.88;4885310;28;98144;-55
2022/07/17 04:09:08;;;;;;;1.67;1.27;;;20.60;98.10;;;21.28;51.50;102231.25;4886344;28;99480;-56
2022/07/17 04:11:34;;;;;;;1.50;1.40;;;20.50;98.30;;;21.29;51.73;102238.34;4891525;28;108203;-54
2022/07/17 04:14:00;;;;;;;3.00;1.60;;;20.60;99.90;;;21.31;51.65;102231.94;4890390;28;99294;-55
2022/07/17 04:16:26;;;;;;;2.03;1.10;;;20.70;99.00;;;21.37;51.43;102225.34;4893396;28;97043;-55
2022/07/17 04:18:53;;;;;;;1.17;1.00;;;20.80;99.90;;;21.44;51.44;102232.13;4903297;28;97318;-56
2022/07/17 04:21:19;;;;;;;1.97;1.13;;;20.90;99.60;;;21.48;51.33;102228.28;4891184;28;97483;-52
2022/07/17 04:23:44;;;;;;;1.40;1.30;;;20.90;99.40;;;21.52;51.21;102229.84;4891436;28;104335;-53
2022/07/17 04:26:10;;;;;;;1.83;1.33;;;21.00;98.80;;;21.51;50.75;102232.63;4895254;28;97147;-55
2022/07/17 04:28:37;;;;;;;1.33;1.03;;;20.90;97.20;;;21.52;51.25;102234.34;4897873;28;97148;-55
2022/07/17 04:31:03;;;;;;;1.53;1.27;;;20.90;99.10;;;21.56;51.20;102231.44;4892885;28;97012;-54
2022/07/17 04:33:29;;;;;;;1.43;1.13;;;21.00;99.90;;;21.59;51.17;102236.63;4902915;28;96985;-54
2022/07/17 04:35:55;;;;;;;1.30;1.20;;;21.10;99.10;;;21.59;50.66;102225.88;4902663;28;96674;-53
2022/07/17 04:38:20;;;;;;;1.37;1.10;;;21.00;98.20;;;21.61;50.79;102215.91;4901454;28;97049;-54
2022/07/17 04:40:46;;;;;;;1.33;1.20;;;21.10;99.00;;;21.64;50.97;102229.16;4892495;28;96730;-56
2022/07/17 04:43:12;;;;;;;1.50;1.10;;;21.20;99.20;;;21.68;50.64;102224.47;4893738;28;99012;-53
2022/07/17 04:45:38;;;;;;;1.33;1.00;;;21.20;99.20;;;21.66;50.20;102232.59;4892292;28;98695;-55
2022/07/17 04:48:05;;;;;;;2.73;1.40;;;21.10;96.20;;;21.60;50.40;102234.78;4888654;28;98870;-54
2022/07/17 04:50:31;;;;;;;2.17;1.30;;;21.00;96.80;;;21.55;50.32;102244.91;4897473;28;97226;-57
2022/07/17 04:52:57;;;;;;;1.83;1.30;;;20.80;96.80;;;21.51;50.89;102244.22;4885134;28;97445;-54
2022/07/17 04:55:23;;;;;;;1.10;1.00;;;20.80;99.20;;;21.55;50.93;102250.28;4886443;28;97455;-55
2022/07/17 04:57:49;;;;;;;2.10;1.33;;;20.90;99.90;;;21.57;50.95;102235.84;4896979;28;98283;-56
2022/07/17 05:00:15;;;;;;;1.40;1.20;;;21.00;99.40;;;21.65;50.79;102244.31;4897559;28;109699;-54
2022/07/17 05:02:41;;;;;;;1.80;1.10;;;21.20;99.50;;;21.69;50.64;102243.16;4892447;28;97456;-54
2022/07/17 05:05:08;;;;;;;1.10;1.00;;;21.20;99.10;;;21.71;50.59;102251.16;4890990;28;96714;-56
2022/07/17 05:07:34;;;;;;;1.43;1.30;;;21.30;99.40;;;21.74;50.46;102247.44;4890762;28;96797;-55
2022/07/17 05:10:00;;;;;;;1.20;1.10;;;21.30;98.80;;;21.80;50.47;102244.38;4910509;28;99526;-55
2022/07/17 05:12:25;;;;;;;1.80;1.27;;;21.40;98.90;;;21.84;50.38;102245.91;4887711;28;97353;-55
2022/07/17 05:14:51;;;;;;;1.17;0.97;;;21.50;99.30;;;21.89;50.31;102251.91;4893924;28;102103;-52
2022/07/17 05:17:17;;;;;;;1.27;1.10;;;21.60;99.10;;;21.92;50.10;102251.72;4898594;28;97084;-53
2022/07/17 05:19:43;;;;;;;1.43;0.90;;;21.60;98.90;;;21.98;49.48;102254.03;4901132;28;97293;-55
2022/07/17 05:22:09;;;;;;;1.93;1.20;;;21.70;97.50;;;22.05;49.63;102265.31;4893119;28;97238;-53
2022/07/17 05:24:34;;;;;;;1.37;1.20;;;21.70;98.80;;;22.11;49.61;102260.47;4909376;28;99431;-55
2022/07/17 05:27:01;;;;;;;2.20;1.50;;;21.90;98.30;;;22.19;49.35;102260.91;4896608;28;98848;-53
2022/07/17 05:29:27;;;;;;;1.03;1.03;;;22.00;98.50;;;22.24;49.19;102269.53;4891900;28;97038;-57
2022/07/17 05:31:53;;;;;;;2.93;1.73;;;22.10;97.80;;;22.26;44.71;102259.56;4901745;28;97240;-52
2022/07/17 05:34:19;;;;;;;1.63;1.10;;;22.10;94.30;;;22.30;49.07;102270.16;4892249;28;97450;-54
2022/07/17 05:36:45;;;;;;;3.37;1.37;;;22.10;98.20;;;22.32;48.05;102274.47;4890026;28;97434;-54
2022/07/17 05:39:11;;;;;;;1.30;1.20;;;22.10;95.50;;;22.34;48.93;102271.69;4897370;28;97211;-53
2022/07/17 05:41:38;;;;;;;1.20;1.10;;;22.10;98.00;;;22.40;48.82;102274.00;4901897;28;97228;-55
2022/07/17 05:44:04;;;;;;;1.67;0.90;;;22.20;97.80;;;22.43;48.54;102273.84;4893706;28;97193;-55
2022/07/17 05:46:30;;;;;;;1.17;1.07;;;22.30;97.80;;;22.46;48.56;102285.25;4894712;28;97078;-53
2022/07/17 05:48:56;;;;;;;1.50;1.00;;;22.30;97.80;;;22.52;48.53;102284.88;4892797;28;97134;-53
2022/07/17 05:51:22;;;;;;;2.03;1.27;;;22.40;97.60;;;22.55;48.16;102291.91;4886943;28;96832;-51
2022/07/17 05:53:48;;;;;;;1.73;1.20;;;22.40;97.10;;;22.56;48.40;102297.19;4892791;28;97112;-57
2022/07/17 05:56:14;;;;;;;1.10;1.00;;;22.40;97.50;;;22.57;48.33;102303.44;4894704;28;99427;-54
2022/07/17 05:58:40;;;;;;;1.80;1.03;;;22.50;97.50;;;22.58;48.23;102294.44;4884200;28;97309;-59
2022/07/17 06:01:06;;;;;;;1.40;1.10;;;22.50;97.40;;;22.60;46.98;102300.56;4897787;28;97319;-56
2022/07/17 06:03:31;;;;;;;1.10;0.97;;;22.50;95.60;;;22.62;47.88;102297.78;4912230;28;96889;-56
2022/07/17 06:05:57;;;;;;;1.10;1.00;;;22.50;96.30;;;22.59;48.04;102293.47;4893255;28;97490;-56
2022/07/17 06:08:23;;;;;;;1.13;1.03;;;22.40;97.30;;;22.60;48.11;102289.81;4895963;28;97731;-57
2022/07/17 06:10:49;;;;;;;2.23;1.40;;;22.40;97.40;;;22.61;46.54;102288.84;4895757;28;100559;-55
2022/07/17 06:13:14;;;;;;;2.23;1.30;;;22.40;94.70;;;22.55;45.60;102297.28;4899639;28;97425;-49
2022/07/17 06:15:40;;;;;;;2.83;1.50;;;22.30;91.90;;;22.38;45.33;102294.75;4901447;28;96642;-56
2022/07/17 06:18:06;;;;;;;1.97;1.30;;;22.00;93.10;;;22.35;47.37;102294.94;4894817;28;96939;-57
2022/07/17 06:20:32;;;;;;;1.70;1.10;;;21.90;94.20;;;22.30;48.51;102302.41;4902294;28;96624;-56
2022/07/17 06:22:58;;;;;;;1.40;1.00;;;21.90;97.00;;;22.29;47.16;102296.16;4897633;28;97070;-53
2022/07/17 06:25:24;;;;;;;1.73;1.20;;;21.90;95.80;;;22.30;47.91;102294.34;4903232;28;102992;-56
2022/07/17 06:27:50;;;;;;;3.00;1.50;;;22.00;96.50;;;22.26;47.38;102291.81;4902813;28;97376;-55
2022/07/17 06:30:17;;;;;;;0.90;0.80;;;21.90;94.70;;;22.29;48.71;102287.25;4905609;28;96877;-56
2022/07/17 06:32:43;;;;;;;0.83;0.77;;;22.00;97.60;;;22.34;48.55;102290.50;4898572;28;96795;-55
2022/07/17 06:35:10;;;;;;;1.03;0.93;;;22.10;97.70;;;22.42;48.51;102285.53;4893206;28;97076;-57
2022/07/17 06:37:37;;;;;;;1.40;0.97;;;22.20;97.50;;;22.45;48.39;102283.53;4908805;28;97123;-56
2022/07/17 06:40:05;;;;;;;1.80;1.17;;;22.30;97.50;;;22.47;48.45;102280.75;4891598;28;98963;-53
2022/07/17 06:42:31;;;;;;;3.33;1.20;;;22.40;97.40;;;22.50;48.34;102272.50;4896582;28;97204;-57
2022/07/17 06:44:56;;;;;;;2.90;1.60;;;22.40;97.20;;;22.51;45.68;102272.41;4893544;28;108357;-57
2022/07/17 06:47:22;;;;;;;2.63;1.57;;;22.40;93.60;;;22.50;46.48;102276.03;4897104;28;97008;-56
2022/07/17 06:49:48;;;;;;;1.83;1.20;;;22.30;94.30;;;22.50;47.95;102277.88;4893230;28;97731;-56
2022/07/17 06:52:14;;;;;;;1.70;1.03;;;22.30;97.30;;;22.51;48.17;102274.22;4896306;28;97598;-57
2022/07/17 06:54:40;;;;;;;1.80;0.90;;;22.40;97.20;;;22.55;47.97;102265.00;4895600;28;97835;-61
2022/07/17 06:57:06;;;;;;;6.07;2.00;;;22.40;96.80;;;22.50;41.19;102261.75;4895840;28;97237;-56
2022/07/17 06:59:31;;;;;;;1.60;1.20;;;22.30;91.80;;;22.35;47.66;102251.91;4895667;28;97251;-56
2022/07/17 07:01:57;;;;;;;1.47;1.03;;;22.00;95.90;;;22.38;48.24;102251.72;4893314;28;97583;-57
2022/07/17 07:04:23;;;;;;;1.17;0.93;;;22.10;97.20;;;22.34;47.98;102255.56;4888135;28;103811;-53
2022/07/17 07:06:49;;;;;;;2.43;1.20;;;22.00;96.70;;;22.30;47.31;102260.25;4886404;28;97349;-56
2022/07/17 07:09:14;;;;;;;3.77;2.20;;;21.90;95.50;;;22.25;41.47;102257.81;4886595;28;97942;-54
2022/07/17 07:11:41;;;;;;;4.63;1.80;;;21.90;92.30;;;22.22;41.29;102263.41;4889987;28;97183;-54
2022/07/17 07:14:07;;;;;;;1.10;0.90;;;21.90;91.90;;;22.27;48.36;102263.97;4890317;28;96793;-56
2022/07/17 07:16:34;;;;;;;1.00;0.83;;;22.00;97.60;;;22.30;48.52;102259.41;4887026;28;97707;-52
2022/07/17 07:19:00;;;;;;;5.07;1.70;;;22.00;97.50;;;22.30;40.80;102270.16;4892623;28;99134;-52
2022/07/17 07:21:27;;;;;;;1.63;0.90;;;22.10;91.90;;;22.25;47.92;102268.56;4889016;28;97299;-52
2022/07/17 07:23:56;;;;;;;4.20;1.20;;;21.90;96.10;;;22.23;43.11;102264.25;4885558;28;97055;-49
2022/07/17 07:26:23;;;;;;;1.27;1.00;;;21.90;91.30;;;22.25;48.46;102273.94;4893833;28;97148;-52
2022/07/17 07:28:49;;;;;;;1.40;1.10;;;21.90;97.20;;;22.23;48.18;102270.50;4887799;28;97159;-56
2022/07/17 07:31:16;;;;;;;5.30;2.40;;;21.90;96.70;;;22.25;41.54;102255.13;4893163;28;97108;-56
2022/07/17 07:33:43;;;;;;;3.77;1.90;;;22.00;91.80;;;22.23;40.96;102254.38;4887747;28;97966;-54
2022/07/17 07:36:09;;;;;;;3.97;1.30;;;21.90;91.40;;;22.21;40.38;102256.28;4891584;28;96939;-54
2022/07/17 07:38:35;;;;;;;1.60;1.03;;;21.90;91.00;;;22.14;45.38;102254.06;4892560;28;97401;-49
2022/07/17 07:41:01;;;;;;;4.30;1.20;;;21.80;92.60;;;22.00;39.02;102248.59;4891067;28;97467;-53
2022/07/17 07:43:27;;;;;;;2.70;1.27;;;21.60;90.20;;;22.02;43.17;102244.00;4887850;28;97268;-56
2022/07/17 07:45:52;;;;;;;2.53;1.20;;;21.60;91.40;;;22.04;46.06;102251.00;4889965;28;97028;-53
2022/07/17 07:48:18;;;;;;;2.13;1.10;;;21.70;94.30;;;22.12;48.50;102248.75;4894165;28;99520;-52
2022/07/17 07:50:44;;;;;;;1.63;1.10;;;21.80;97.50;;;22.19;48.59;102252.84;4890417;28;97164;-57
2022/07/17 07:53:10;;;;;;;2.03;1.20;;;22.00;97.40;;;22.24;48.58;102256.09;4893954;28;97235;-54
2022/07/17 07:55:36;;;;;;;2.10;1.20;;;22.10;97.20;;;22.34;48.31;102260.94;4892061;28;97496;-54
2022/07/17 07:58:10;;;;;;;3.20;1.10;;;22.20;97.10;;;22.41;40.13;102256.91;4888315;28;116407;-57
2022/07/17 08:00:39;;;;;;;2.77;1.17;;;22.30;90.80;;;22.39;45.68;102270.44;4895751;28;97159;-52
2022/07/17 08:03:06;;;;;;;3.17;1.30;;;22.20;93.70;;;22.36;40.16;102270.63;4891626;28;97083;-56
2022/07/17 08:05:32;;;;;;;1.70;1.00;;;22.10;91.10;;;22.37;41.69;102277.75;4894739;28;98753;-53
2022/07/17 08:07:59;;;;;;;2.00;0.80;;;22.20;92.30;;;22.45;47.45;102277.28;4892132;28;97422;-56
2022/07/17 08:10:25;;;;;;;1.47;1.03;;;22.20;96.50;;;22.47;47.36;102284.31;4913261;28;96875;-56
2022/07/17 08:12:51;;;;;;;1.20;0.80;;;22.30;96.20;;;22.49;47.54;102274.31;4896351;28;97041;-56
2022/07/17 08:15:19;;;;;;;6.70;3.47;;;22.30;96.20;;;22.52;40.06;102286.72;4895599;28;96846;-55
2022/07/17 08:17:48;;;;;;;3.07;1.30;;;22.40;90.90;;;22.53;45.76;102289.31;4894917;28;97014;-57
2022/07/17 08:20:15;;;;;;;1.67;1.00;;;22.30;92.40;;;22.54;47.51;102292.84;4895770;28;97445;-56
2022/07/17 08:22:45;;;;;;;2.63;1.03;;;22.40;96.50;;;22.58;46.83;102290.88;4900528;28;96778;-56
2022/07/17 08:25:11;;;;;;;1.70;1.30;;;22.40;95.30;;;22.62;47.22;102292.41;4905723;28;96802;-56
2022/07/17 08:27:42;;;;;;;4.33;1.70;;;22.50;96.40;;;22.65;42.17;102292.22;4905994;28;97801;-52
2022/07/17 08:30:11;;;;;;;3.80;1.67;;;22.50;91.70;;;22.64;41.15;102293.19;4897171;28;100982;-56
2022/07/17 08:32:38;;;;;;;2.13;1.10;;;22.40;89.60;;;22.64;46.70;102290.50;4881121;28;98739;-54
2022/07/17 08:35:05;;;;;;;4.47;1.87;;;22.40;95.10;;;22.64;39.81;102291.34;4871067;28;99205;-55
2022/07/17 08:37:45;;;;;;;4.07;1.40;;;22.50;91.20;;;22.65;37.25;102287.69;4871554;28;99673;-55
2022/07/17 08:40:19;;;;;;;4.47;1.80;;;22.40;86.70;;;22.59;38.54;102282.72;4865219;28;99894;-56
2022/07/17 08:42:45;;;;;;;4.50;1.57;;;22.30;86.60;;;22.59;37.39;102298.84;4871171;28;96967;-57
2022/07/17 08:45:12;;;;;;;4.03;1.67;;;22.30;86.40;;;22.58;38.15;102290.88;4875019;28;97987;-57
2022/07/17 08:47:39;;;;;;;3.60;1.07;;;22.30;87.10;;;22.62;46.73;102298.66;4874575;28;97817;-56
2022/07/17 08:50:06;;;;;;;5.87;1.57;;;22.40;95.80;;;22.62;37.37;102287.88;4870729;28;101735;-57
2022/07/17 08:52:31;;;;;;;4.60;1.33;;;22.40;86.20;;;22.64;43.95;102291.34;4875638;28;98657;-57
2022/07/17 08:54:58;;;;;;;3.40;1.20;;;22.50;93.40;;;22.68;44.73;102292.88;4868904;28;97025;-55
2022/07/17 08:57:24;;;;;;;1.13;0.90;;;22.50;93.20;;;22.71;46.64;102303.47;4875897;28;98330;-54
2022/07/17 08:59:50;;;;;;;3.97;1.73;;;22.60;95.60;;;22.65;36.96;102297.59;4862958;28;104549;-55
2022/07/17 09:02:16;;;;;;;1.70;1.27;;;22.50;85.50;;;22.68;46.66;102300.09;4867461;28;97428;-54
2022/07/17 09:04:41;;;;;;;2.73;1.10;;;22.50;95.80;;;22.72;38.93;102294.44;4865105;28;100436;-54
2022/07/17 09:07:07;;;;;;;3.73;1.30;;;22.60;88.80;;;22.71;44.49;102303.47;4867976;28;97504;-53
2022/07/17 09:09:34;;;;;;;1.87;1.03;;;22.60;93.00;;;22.75;41.91;102294.25;4866741;28;98098;-56
2022/07/17 09:12:01;;;;;;;6.27;1.60;;;22.70;92.30;;;22.77;37.17;102284.25;4863904;28;97372;-54
2022/07/17 09:14:41;;;;;;;2.00;1.20;;;22.70;85.80;;;22.82;44.47;102271.41;4871080;28;97114;-53
2022/07/17 09:17:10;;;;;;;3.77;1.40;;;22.70;94.00;;;22.83;38.88;102278.53;4869089;28;101870;-55
2022/07/17 09:19:42;;;;;;;4.20;1.30;;;22.70;89.20;;;22.77;36.69;102275.31;4870653;28;97397;-56
2022/07/17 09:22:18;;;;;;;4.73;1.53;;;22.70;84.80;;;22.81;40.15;102277.72;4868229;28;98670;-57
2022/07/17 09:24:54;;;;;;;6.87;1.53;;;22.60;92.20;;;22.82;37.90;102266.03;4870237;28;98121;-53
2022/07/17 09:27:23;;;;;;;4.03;1.57;;;22.70;86.50;;;22.81;42.65;102271.47;4875703;28;97109;-58
2022/07/17 09:30:11;;;;;;;2.10;1.10;;;22.70;91.80;;;22.88;43.42;102272.88;4872630;28;97277;-55
2022/07/17 09:32:41;;;;;;;3.30;1.17;;;22.70;93.50;;;22.92;36.69;102273.56;4881676;28;96922;-58
2022/07/17 09:35:10;;;;;;;3.53;1.40;;;22.70;84.30;;;22.91;44.51;102271.81;4873958;28;97028;-53
2022/07/17 09:37:37;;;;;;;4.13;1.67;;;22.80;93.20;;;22.94;44.62;102277.00;4879262;28;97757;-53
2022/07/17 09:40:10;;;;;;;4.77;1.33;;;22.80;93.70;;;22.96;39.34;102270.56;4876260;28;97794;-57
2022/07/17 09:42:36;;;;;;;4.13;1.50;;;22.90;89.90;;;22.99;44.73;102269.50;4876432;28;97376;-57
2022/07/17 09:45:10;;;;;;;3.47;1.20;;;22.90;93.80;;;22.96;45.36;102269.69;4876229;28;100421;-56
2022/07/17 09:47:38;;;;;;;3.17;1.40;;;22.90;94.30;;;22.95;44.28;102273.34;4875694;28;97514;-57
2022/07/17 09:50:08;;;;;;;3.87;1.27;;;22.90;93.40;;;22.89;45.66;102279.13;4871515;28;96889;-55
2022/07/17 09:52:37;;;;;;;5.03;1.40;;;22.90;94.60;;;22.97;37.57;102276.81;4887511;28;97453;-58
2022/07/17 09:55:04;;;;;;;2.70;1.40;;;22.90;86.80;;;22.93;45.55;102267.22;4876030;28;97081;-57
2022/07/17 09:57:33;;;;;;;2.67;1.17;;;22.90;94.50;;;22.82;45.78;102260.66;4876380;28;98704;-57
2022/07/17 10:00:07;;;;;;;3.23;1.20;;;22.90;94.70;;;22.87;46.04;102264.91;4872831;28;97927;-57
2022/07/17 10:02:34;;;;;;;2.67;1.40;;;22.90;94.90;;;22.90;45.78;102259.34;4882420;28;96994;-57
2022/07/17 10:05:00;;;;;;;4.07;1.40;;;22.90;94.70;;;22.90;42.62;102262.03;4869681;28;106240;-57
2022/07/17 10:07:26;;;;;;;2.70;1.20;;;22.90;92.50;;;22.95;39.19;102260.75;4871422;28;98195;-57
2022/07/17 10:09:53;;;;;;;4.10;1.33;;;22.90;89.30;;;23.05;41.88;102258.38;4869696;28;110200;-56